Terminal Aerodrome Forecast
Issued by NWS Grand Junction, CO

Home | Current Version | Previous Version | Text Only | Print | Product List | Glossary On
Versions: 1 2 3 4 5 6 7 8 9 10 11 12 13 14 15 16 17 18 19 20 21 22 23 24 25 26 27 28 29 30 31 32 33 34 35 36 37 38 39 40 41 42 43 44 45
000
FTUS45 KGJT 010534
TAFGJT
TAF
KGJT 010534Z 0106/0206 35003KT P6SM SKC
     FM010800 09005KT P6SM VCFG SCT010
     FM011400 VRB03KT P6SM SCT070
     FM012000 32005KT P6SM SCT070 BKN200
     FM020100 05004KT P6SM BKN120=

USA.gov is the U.S. government's official web portal to all federal, state and local government web resources and services.